Time;durP1;ratioP1;P1;durP2;ratioP2;P2;SDS_P1;SDS_P2;PMS_P1;PMS_P2;Temp;Humidity;BMP_temperature;BMP_pressure;BME280_temperature;BME280_humidity;BME280_pressure;Samples;Min_cycle;Max_cycle;Signal;HPM_P1;HPM_P2
2022/12/05 00:02:04;;;;;;;15.57;10.80;;;6.40;96.70;;;;;;941975;147;27369;-77
2022/12/05 00:04:31;;;;;;;15.10;11.10;;;6.40;96.70;;;;;;918408;150;27411;-77
2022/12/05 00:06:57;;;;;;;14.93;10.67;;;6.40;96.70;;;;;;941566;147;27336;-77
2022/12/05 00:09:24;;;;;;;15.87;11.73;;;6.40;96.80;;;;;;920178;150;27433;-77
2022/12/05 00:11:51;;;;;;;15.17;11.70;;;6.40;96.90;;;;;;941817;147;27385;-77
2022/12/05 00:14:17;;;;;;;16.17;11.73;;;6.40;96.90;;;;;;931893;149;27313;-77
2022/12/05 00:16:44;;;;;;;13.80;10.50;;;6.40;96.90;;;;;;931203;150;27434;-77
2022/12/05 00:19:10;;;;;;;15.40;10.90;;;6.40;96.80;;;;;;935687;150;27364;-77
2022/12/05 00:21:37;;;;;;;13.93;11.20;;;6.50;96.70;;;;;;918783;150;27440;-77
2022/12/05 00:24:04;;;;;;;14.00;10.30;;;6.50;96.60;;;;;;920140;150;27390;-77
2022/12/05 00:26:30;;;;;;;15.93;11.53;;;6.50;96.70;;;;;;920170;154;27364;-77
2022/12/05 00:28:57;;;;;;;13.97;10.07;;;6.50;96.70;;;;;;920279;150;27339;-77
2022/12/05 00:31:23;;;;;;;14.70;10.83;;;6.50;96.70;;;;;;919544;154;27354;-77
2022/12/05 00:33:50;;;;;;;14.00;10.77;;;6.50;96.70;;;;;;917709;154;27359;-77
2022/12/05 00:36:25;;;;;;;15.13;11.53;;;6.50;96.80;;;;;;919423;154;27404;-77
2022/12/05 00:38:52;;;;;;;14.80;10.37;;;6.50;96.80;;;;;;918925;154;27292;-77
2022/12/05 00:41:19;;;;;;;13.23;10.53;;;6.50;96.80;;;;;;920842;154;27334;-77
2022/12/05 00:43:45;;;;;;;16.10;11.03;;;6.50;96.90;;;;;;919571;154;27346;-77
2022/12/05 00:46:12;;;;;;;13.73;10.20;;;6.50;96.80;;;;;;920147;154;27375;-77
2022/12/05 00:48:38;;;;;;;14.00;10.50;;;6.50;97.00;;;;;;919259;154;27317;-77
2022/12/05 00:51:05;;;;;;;14.37;10.07;;;6.50;97.10;;;;;;919054;151;27387;-77
2022/12/05 00:53:32;;;;;;;13.03;10.37;;;6.50;97.50;;;;;;919501;151;27408;-77
2022/12/05 00:56:01;;;;;;;15.33;10.87;;;6.50;97.20;;;;;;919638;151;27293;-77
2022/12/05 00:58:27;;;;;;;14.27;10.67;;;6.50;97.30;;;;;;919296;151;27473;-77
2022/12/05 01:00:54;;;;;;;14.03;9.93;;;6.60;97.40;;;;;;918171;154;27394;-77
2022/12/05 01:03:21;;;;;;;13.27;10.70;;;6.60;97.30;;;;;;946672;148;27352;-77
2022/12/05 01:05:47;;;;;;;13.80;10.23;;;6.60;97.20;;;;;;946171;148;27300;-77
2022/12/05 01:08:14;;;;;;;12.93;10.63;;;6.60;97.20;;;;;;920957;151;27434;-77
2022/12/05 01:10:40;;;;;;;12.87;10.03;;;6.60;97.30;;;;;;946200;148;27870;-77
2022/12/05 01:13:07;;;;;;;15.43;11.87;;;6.60;97.30;;;;;;921957;154;27796;-77
2022/12/05 01:15:34;;;;;;;14.60;10.53;;;6.70;97.40;;;;;;944833;148;27328;-77
2022/12/05 01:18:00;;;;;;;14.27;10.90;;;6.70;97.30;;;;;;922289;154;27419;-78
2022/12/05 01:20:27;;;;;;;13.60;10.73;;;6.70;97.30;;;;;;947955;148;27350;-78
2022/12/05 01:22:53;;;;;;;14.70;10.73;;;6.70;97.30;;;;;;946714;148;27353;-78
2022/12/05 01:25:20;;;;;;;14.83;10.70;;;6.70;97.40;;;;;;934242;150;27369;-78
2022/12/05 01:27:46;;;;;;;15.70;10.93;;;6.70;97.40;;;;;;947527;148;27349;-78
2022/12/05 01:30:13;;;;;;;14.70;10.57;;;6.80;97.70;;;;;;940471;146;27518;-78
2022/12/05 01:32:40;;;;;;;15.13;10.83;;;6.80;97.30;;;;;;940368;146;27313;-78
2022/12/05 01:35:06;;;;;;;15.67;11.43;;;6.80;97.30;;;;;;944835;146;27440;-78
2022/12/05 01:37:33;;;;;;;13.77;11.00;;;6.80;97.30;;;;;;940840;147;27340;-78
2022/12/05 01:39:59;;;;;;;14.50;10.93;;;6.80;97.20;;;;;;925810;153;27302;-78
2022/12/05 01:42:26;;;;;;;13.57;10.87;;;6.80;97.20;;;;;;939899;147;27437;-78
2022/12/05 01:44:59;;;;;;;15.67;12.30;;;6.80;97.20;;;;;;933745;148;27447;-78
2022/12/05 01:47:25;;;;;;;15.03;11.40;;;6.80;97.40;;;;;;932175;148;27471;-78
2022/12/05 01:49:53;;;;;;;13.90;10.53;;;6.80;97.40;;;;;;933968;149;27498;-78
2022/12/05 01:52:18;;;;;;;15.27;11.80;;;6.80;97.40;;;;;;942851;147;27301;-77
2022/12/05 01:54:45;;;;;;;14.60;11.37;;;6.80;97.40;;;;;;925647;150;27816;-77
2022/12/05 01:57:12;;;;;;;14.57;10.70;;;6.90;97.50;;;;;;935150;149;27303;-77
2022/12/05 01:59:38;;;;;;;15.70;11.33;;;6.90;97.60;;;;;;934562;150;27494;-77
2022/12/05 02:02:05;;;;;;;16.53;11.73;;;6.90;97.50;;;;;;941421;147;27451;-77
2022/12/05 02:04:31;;;;;;;13.80;11.60;;;6.90;97.50;;;;;;925701;150;27809;-77
2022/12/05 02:06:58;;;;;;;15.30;11.57;;;6.90;97.50;;;;;;938906;147;27291;-77
2022/12/05 02:09:24;;;;;;;14.73;11.27;;;6.90;97.50;;;;;;917540;150;27401;-77
2022/12/05 02:11:57;;;;;;;15.47;11.47;;;6.90;97.50;;;;;;942602;147;27310;-77
2022/12/05 02:14:36;;;;;;;18.10;12.40;;;6.90;97.50;;;;;;917519;150;27758;-77
2022/12/05 02:17:05;;;;;;;16.20;11.73;;;6.90;97.30;;;;;;917064;150;27368;-77
2022/12/05 02:20:06;;;;;;;16.37;11.83;;;6.90;97.20;;;;;;917932;150;27301;-77
2022/12/05 02:22:51;;;;;;;15.63;11.43;;;6.90;97.20;;;;;;917088;150;27391;-78
2022/12/05 02:25:51;;;;;;;14.50;10.83;;;6.80;97.10;;;;;;915508;150;27391;-79
2022/12/05 02:28:46;;;;;;;14.20;10.13;;;6.80;97.10;;;;;;915599;151;27403;-78
2022/12/05 02:31:24;;;;;;;14.13;11.17;;;6.80;97.20;;;;;;939521;148;27507;-78
2022/12/05 02:33:56;;;;;;;16.07;11.90;;;6.80;97.20;;;;;;928507;148;27375;-78
2022/12/05 02:36:34;;;;;;;17.57;12.47;;;6.70;97.30;;;;;;938882;148;27420;-78
2022/12/05 02:39:06;;;;;;;15.33;11.70;;;6.70;97.50;;;;;;941648;148;27511;-78
2022/12/05 02:41:54;;;;;;;16.30;12.63;;;6.70;97.70;;;;;;957650;145;27859;-78
2022/12/05 02:44:32;;;;;;;18.90;11.97;;;6.70;97.80;;;;;;953893;145;27375;-77
2022/12/05 02:46:59;;;;;;;16.63;12.93;;;6.70;97.70;;;;;;956850;145;27333;-77
2022/12/05 02:49:25;;;;;;;16.93;12.47;;;6.70;97.80;;;;;;959807;145;27247;-77
2022/12/05 02:51:52;;;;;;;16.47;12.03;;;6.70;97.80;;;;;;959342;145;27435;-77
2022/12/05 02:54:18;;;;;;;16.27;11.77;;;6.70;97.80;;;;;;949427;148;27815;-77
2022/12/05 02:56:45;;;;;;;15.90;12.37;;;6.80;97.80;;;;;;941989;148;27334;-77
2022/12/05 02:59:11;;;;;;;17.53;12.17;;;6.80;97.70;;;;;;956026;148;27881;-77
2022/12/05 03:01:38;;;;;;;14.57;11.07;;;6.80;97.70;;;;;;942911;148;27364;-77
2022/12/05 03:04:05;;;;;;;16.77;12.90;;;6.80;97.70;;;;;;943140;147;27376;-77
2022/12/05 03:06:34;;;;;;;18.20;12.37;;;6.80;97.70;;;;;;942164;147;27306;-77
2022/12/05 03:09:01;;;;;;;17.23;11.37;;;6.80;97.80;;;;;;943048;147;27394;-77
2022/12/05 03:11:27;;;;;;;14.10;10.47;;;6.80;97.90;;;;;;941626;147;27390;-77
2022/12/05 03:13:54;;;;;;;13.53;10.87;;;6.80;98.00;;;;;;944152;147;27377;-77
2022/12/05 03:16:23;;;;;;;15.77;11.27;;;6.90;98.00;;;;;;943197;147;27440;-77
2022/12/05 03:18:50;;;;;;;15.97;11.20;;;6.90;98.00;;;;;;941698;147;27348;-77
2022/12/05 03:21:34;;;;;;;15.43;10.93;;;6.90;98.00;;;;;;944162;147;27344;-77
2022/12/05 03:24:07;;;;;;;16.33;11.40;;;6.90;98.10;;;;;;940036;148;27359;-78
2022/12/05 03:26:37;;;;;;;14.20;10.30;;;7.00;98.10;;;;;;940281;148;27360;-77
2022/12/05 03:29:24;;;;;;;15.07;11.17;;;7.00;98.10;;;;;;960765;145;27412;-76
2022/12/05 03:32:05;;;;;;;15.10;10.80;;;7.00;98.10;;;;;;934048;149;27330;-77
2022/12/05 03:34:32;;;;;;;15.77;10.70;;;7.00;98.00;;;;;;927361;150;27391;-78
2022/12/05 03:36:59;;;;;;;15.10;11.50;;;7.00;98.00;;;;;;927195;151;27481;-76
2022/12/05 03:39:25;;;;;;;15.53;11.83;;;7.00;98.00;;;;;;943720;147;27314;-76
2022/12/05 03:41:57;;;;;;;16.43;11.20;;;7.00;97.90;;;;;;941695;147;27357;-77
2022/12/05 03:44:36;;;;;;;17.37;11.87;;;7.10;98.00;;;;;;941193;147;27272;-77
2022/12/05 03:47:05;;;;;;;17.50;11.53;;;7.10;97.90;;;;;;940653;147;27350;-78
2022/12/05 03:49:37;;;;;;;13.83;10.87;;;7.10;97.80;;;;;;930997;149;27418;-77
2022/12/05 03:52:12;;;;;;;15.77;11.27;;;7.10;97.70;;;;;;924569;150;27345;-77
2022/12/05 03:54:42;;;;;;;17.77;12.47;;;7.10;97.60;;;;;;934918;149;27372;-77
2022/12/05 03:57:14;;;;;;;14.23;12.03;;;7.00;97.60;;;;;;928229;149;27352;-77
2022/12/05 03:59:41;;;;;;;16.20;12.10;;;7.00;97.70;;;;;;933747;149;27344;-78
2022/12/05 04:02:07;;;;;;;16.93;11.80;;;7.00;97.70;;;;;;933651;149;27333;-77
2022/12/05 04:04:34;;;;;;;16.83;12.17;;;7.00;97.80;;;;;;943639;147;27480;-78
2022/12/05 04:07:00;;;;;;;17.40;11.90;;;7.00;97.70;;;;;;919710;150;27375;-77
2022/12/05 04:09:39;;;;;;;17.33;11.20;;;7.00;97.80;;;;;;923419;150;27813;-77
2022/12/05 04:12:08;;;;;;;17.13;12.57;;;7.00;97.80;;;;;;924570;150;27318;-77
2022/12/05 04:14:44;;;;;;;17.03;11.83;;;7.00;97.90;;;;;;930773;150;27304;-77
2022/12/05 04:17:38;;;;;;;15.67;11.90;;;7.00;97.90;;;;;;925323;150;27355;-77
2022/12/05 04:23:04;;;;;;;17.50;12.10;;;7.00;98.00;;;;;;928248;149;27479;-77
2022/12/05 04:25:36;;;;;;;18.70;11.97;;;7.00;97.90;;;;;;926570;149;28901;-78
2022/12/05 04:28:03;;;;;;;17.43;11.90;;;7.00;97.90;;;;;;922111;151;27294;-77
2022/12/05 04:30:30;;;;;;;20.33;13.23;;;6.90;97.90;;;;;;925550;149;27521;-78
2022/12/05 04:33:02;;;;;;;21.90;12.73;;;6.90;98.00;;;;;;926310;150;27464;-77
2022/12/05 04:35:37;;;;;;;20.57;12.27;;;6.90;98.00;;;;;;927719;149;27457;-78
2022/12/05 04:38:07;;;;;;;20.47;14.03;;;6.90;98.00;;;;;;928920;149;27376;-77
2022/12/05 04:40:33;;;;;;;22.60;13.70;;;6.90;98.10;;;;;;926715;151;27333;-78
2022/12/05 04:43:00;;;;;;;18.70;13.10;;;6.90;98.20;;;;;;926838;150;27372;-77
2022/12/05 04:45:26;;;;;;;17.33;12.27;;;6.90;98.20;;;;;;926297;150;27367;-78
2022/12/05 04:47:53;;;;;;;18.00;12.37;;;6.90;98.20;;;;;;927213;149;27297;-78
2022/12/05 04:50:19;;;;;;;20.00;13.23;;;6.90;98.30;;;;;;925847;149;27373;-77
2022/12/05 04:52:46;;;;;;;19.60;13.60;;;6.90;98.60;;;;;;926777;150;27330;-78
2022/12/05 04:55:13;;;;;;;20.27;11.93;;;6.90;98.30;;;;;;925464;150;27490;-78
2022/12/05 04:57:51;;;;;;;19.77;13.40;;;6.90;98.40;;;;;;926898;149;27482;-77
2022/12/05 05:00:18;;;;;;;20.20;13.37;;;6.90;98.60;;;;;;934687;149;28733;-77
2022/12/05 05:02:44;;;;;;;22.00;13.33;;;6.90;98.60;;;;;;933530;149;27326;-77
2022/12/05 05:05:11;;;;;;;22.10;13.97;;;6.90;98.50;;;;;;934526;149;27702;-77
2022/12/05 05:07:47;;;;;;;21.10;13.63;;;6.90;98.60;;;;;;934568;149;27466;-78
2022/12/05 05:10:13;;;;;;;18.87;12.60;;;6.90;98.60;;;;;;934973;149;27408;-77
2022/12/05 05:12:40;;;;;;;21.50;14.63;;;6.90;98.50;;;;;;935838;149;27390;-77
2022/12/05 05:15:07;;;;;;;21.53;13.13;;;6.90;98.50;;;;;;933997;149;27376;-77
2022/12/05 05:17:33;;;;;;;18.63;13.23;;;6.90;98.50;;;;;;936126;148;27295;-78
2022/12/05 05:22:44;;;;;;;18.43;12.30;;;6.90;98.50;;;;;;933728;149;27386;-78
2022/12/05 05:25:11;;;;;;;20.10;13.27;;;6.90;98.50;;;;;;932297;149;27471;-77
2022/12/05 05:27:37;;;;;;;18.97;12.93;;;6.90;98.70;;;;;;936626;149;28014;-78
2022/12/05 05:30:04;;;;;;;19.93;13.03;;;6.90;98.80;;;;;;933347;149;27351;-77
2022/12/05 05:32:33;;;;;;;21.57;13.37;;;6.90;98.90;;;;;;934990;149;27446;-78
2022/12/05 05:35:00;;;;;;;20.03;12.33;;;6.90;99.00;;;;;;940514;148;27430;-77
2022/12/05 05:37:26;;;;;;;21.47;13.37;;;6.90;99.10;;;;;;935868;149;27337;-77
2022/12/05 05:39:53;;;;;;;19.10;12.87;;;6.90;99.10;;;;;;935472;149;27856;-77
2022/12/05 05:42:19;;;;;;;19.43;12.47;;;7.00;99.20;;;;;;934403;149;27319;-78
2022/12/05 05:44:46;;;;;;;20.27;13.00;;;7.00;99.20;;;;;;935426;148;27330;-78
2022/12/05 05:47:13;;;;;;;19.10;12.03;;;7.00;99.20;;;;;;936301;149;27455;-77
2022/12/05 05:49:39;;;;;;;19.73;13.40;;;7.00;99.20;;;;;;935334;149;27812;-78
2022/12/05 05:52:06;;;;;;;21.90;13.70;;;7.10;99.30;;;;;;933835;149;27474;-78
2022/12/05 05:54:32;;;;;;;18.40;11.73;;;7.10;99.30;;;;;;935706;148;27294;-78
2022/12/05 05:56:59;;;;;;;22.53;13.07;;;7.10;99.30;;;;;;938256;147;27290;-78
2022/12/05 05:59:25;;;;;;;21.67;12.90;;;7.20;99.20;;;;;;935955;148;27405;-77
2022/12/05 06:01:52;;;;;;;20.80;13.17;;;7.20;99.10;;;;;;936224;149;27380;-78
2022/12/05 06:04:19;;;;;;;19.77;12.67;;;7.20;99.00;;;;;;934007;148;27511;-78
2022/12/05 06:06:45;;;;;;;17.77;12.27;;;7.20;98.80;;;;;;935947;149;27373;-78
2022/12/05 06:09:12;;;;;;;20.77;13.10;;;7.30;98.80;;;;;;933142;149;27400;-78
2022/12/05 06:11:38;;;;;;;18.60;12.70;;;7.30;98.70;;;;;;930462;149;27815;-79
2022/12/05 06:14:05;;;;;;;23.10;14.30;;;7.30;98.70;;;;;;927050;150;27392;-78
2022/12/05 06:16:32;;;;;;;22.53;12.97;;;7.30;98.70;;;;;;938054;148;27369;-78
2022/12/05 06:18:58;;;;;;;19.50;12.57;;;7.30;98.70;;;;;;941290;147;27423;-78
2022/12/05 06:21:25;;;;;;;21.73;13.30;;;7.30;98.70;;;;;;930677;149;27350;-78
2022/12/05 06:23:52;;;;;;;20.00;12.77;;;7.30;98.70;;;;;;928089;150;27321;-78
2022/12/05 06:26:18;;;;;;;22.00;12.77;;;7.30;98.70;;;;;;927307;150;27392;-78
2022/12/05 06:28:45;;;;;;;24.50;14.73;;;7.30;98.60;;;;;;918738;154;27387;-77
2022/12/05 06:31:17;;;;;;;26.87;13.63;;;7.30;98.90;;;;;;918677;150;27332;-78
2022/12/05 06:33:43;;;;;;;19.73;13.03;;;7.30;98.50;;;;;;908414;152;27361;-77
2022/12/05 06:36:10;;;;;;;22.97;14.03;;;7.30;98.50;;;;;;924911;151;27352;-78
2022/12/05 06:38:36;;;;;;;22.30;13.07;;;7.30;98.50;;;;;;923285;151;27855;-77
2022/12/05 06:41:06;;;;;;;20.57;12.93;;;7.30;98.50;;;;;;923898;151;27475;-77
2022/12/05 06:43:33;;;;;;;20.63;12.83;;;7.30;98.60;;;;;;923093;151;27422;-77
2022/12/05 06:45:59;;;;;;;20.40;12.67;;;7.30;98.60;;;;;;923759;151;27359;-77
2022/12/05 06:48:26;;;;;;;25.17;13.80;;;7.30;98.60;;;;;;923063;151;27382;-77
2022/12/05 06:50:52;;;;;;;16.53;11.97;;;7.30;98.70;;;;;;925705;150;27352;-77
2022/12/05 06:53:19;;;;;;;19.37;12.73;;;7.30;98.80;;;;;;924188;150;28177;-77
2022/12/05 06:55:57;;;;;;;21.63;12.93;;;7.30;98.40;;;;;;925606;150;27300;-78
2022/12/05 06:58:24;;;;;;;21.53;13.07;;;7.30;98.80;;;;;;925162;150;27291;-77
2022/12/05 07:03:35;;;;;;;19.87;12.13;;;7.30;99.00;;;;;;924910;150;27465;-77
2022/12/05 07:06:01;;;;;;;22.13;13.63;;;7.30;99.00;;;;;;930063;150;27461;-77
2022/12/05 07:08:28;;;;;;;20.37;13.03;;;7.30;99.00;;;;;;926735;150;27476;-77
2022/12/05 07:10:55;;;;;;;22.77;14.13;;;7.30;99.00;;;;;;930104;150;27455;-77
2022/12/05 07:13:21;;;;;;;21.30;14.30;;;7.30;99.00;;;;;;923431;150;27719;-77
2022/12/05 07:15:48;;;;;;;24.47;13.80;;;7.30;99.00;;;;;;909220;153;27444;-77
2022/12/05 07:18:14;;;;;;;21.23;14.17;;;7.30;99.10;;;;;;924898;151;27394;-77
2022/12/05 07:20:41;;;;;;;26.03;15.20;;;7.30;99.20;;;;;;923344;151;27382;-78
2022/12/05 07:23:07;;;;;;;24.60;14.43;;;7.30;99.50;;;;;;924722;150;27362;-78
2022/12/05 07:25:34;;;;;;;22.90;14.10;;;7.40;99.30;;;;;;925818;150;28088;-77
2022/12/05 07:28:01;;;;;;;24.97;13.60;;;7.40;99.40;;;;;;928124;150;27375;-78
2022/12/05 07:30:27;;;;;;;21.17;13.53;;;7.40;99.40;;;;;;924528;150;27378;-77
2022/12/05 07:32:54;;;;;;;21.87;14.43;;;7.40;99.80;;;;;;929774;148;27369;-77
2022/12/05 07:35:20;;;;;;;24.20;14.47;;;7.40;99.50;;;;;;925189;150;27303;-77
2022/12/05 07:37:47;;;;;;;24.27;13.87;;;7.40;99.50;;;;;;925314;149;27345;-77
2022/12/05 07:40:14;;;;;;;22.37;14.43;;;7.50;99.50;;;;;;927471;150;27353;-79
2022/12/05 07:42:40;;;;;;;22.17;13.93;;;7.50;99.50;;;;;;921239;150;27478;-77
2022/12/05 07:45:07;;;;;;;25.67;14.00;;;7.50;99.60;;;;;;920795;150;27371;-77
2022/12/05 07:47:34;;;;;;;22.60;13.83;;;7.50;99.50;;;;;;940695;147;27306;-77
2022/12/05 07:50:00;;;;;;;20.97;13.13;;;7.50;99.50;;;;;;918485;150;27316;-77
2022/12/05 07:52:27;;;;;;;18.53;12.53;;;7.50;99.50;;;;;;941615;147;27270;-78
2022/12/05 07:54:53;;;;;;;20.67;12.93;;;7.50;99.50;;;;;;919904;150;27397;-78
2022/12/05 07:57:20;;;;;;;21.17;13.37;;;7.60;99.60;;;;;;943199;147;27385;-77
2022/12/05 07:59:47;;;;;;;22.60;12.87;;;7.60;99.70;;;;;;919350;150;28773;-78
2022/12/05 08:02:13;;;;;;;19.23;12.13;;;7.60;99.80;;;;;;941580;147;27275;-76
2022/12/05 08:04:40;;;;;;;18.70;12.30;;;7.60;99.80;;;;;;917595;150;27350;-77
2022/12/05 08:07:06;;;;;;;20.20;13.37;;;7.70;99.90;;;;;;942565;148;27394;-78
2022/12/05 08:09:33;;;;;;;23.33;13.73;;;7.70;99.90;;;;;;929195;149;27513;-77
2022/12/05 08:11:59;;;;;;;18.87;13.03;;;7.70;99.90;;;;;;918406;150;28006;-77
2022/12/05 08:14:26;;;;;;;19.83;12.90;;;7.80;99.90;;;;;;918418;150;27370;-77
2022/12/05 08:16:53;;;;;;;17.93;12.47;;;7.80;99.90;;;;;;917805;150;27328;-77
2022/12/05 08:19:19;;;;;;;16.37;12.10;;;7.80;99.90;;;;;;916358;150;27349;-78
2022/12/05 08:21:46;;;;;;;17.37;12.60;;;7.90;99.90;;;;;;919187;150;27350;-79
2022/12/05 08:24:12;;;;;;;21.20;13.00;;;7.90;99.90;;;;;;918468;150;27488;-78
2022/12/05 08:26:39;;;;;;;17.77;12.53;;;7.90;99.90;;;;;;919461;150;27334;-77
2022/12/05 08:29:08;;;;;;;19.47;12.17;;;8.00;99.80;;;;;;918963;150;27395;-77
2022/12/05 08:31:35;;;;;;;22.13;13.77;;;8.00;99.70;;;;;;918639;150;27395;-78
2022/12/05 08:34:01;;;;;;;19.30;13.57;;;8.00;99.60;;;;;;914638;150;27550;-78
2022/12/05 08:36:28;;;;;;;19.73;13.87;;;8.00;99.50;;;;;;923297;151;27394;-78
2022/12/05 08:38:55;;;;;;;19.67;14.47;;;8.00;99.40;;;;;;922708;151;27358;-77
2022/12/05 08:41:21;;;;;;;21.67;13.33;;;8.00;99.30;;;;;;922396;152;27319;-77
2022/12/05 08:43:48;;;;;;;20.17;13.77;;;8.00;99.20;;;;;;922234;151;27352;-80
2022/12/05 08:46:14;;;;;;;19.17;14.10;;;8.10;99.20;;;;;;922812;151;27504;-80
2022/12/05 08:48:41;;;;;;;20.17;14.00;;;8.10;99.10;;;;;;921910;151;27427;-79
2022/12/05 08:51:08;;;;;;;23.20;14.63;;;8.00;98.90;;;;;;924777;151;27302;-81
2022/12/05 08:53:37;;;;;;;20.13;13.40;;;8.10;98.90;;;;;;924240;151;27348;-82
2022/12/05 08:56:03;;;;;;;21.83;13.97;;;8.00;98.90;;;;;;924538;151;27417;-81
2022/12/05 08:58:30;;;;;;;24.37;14.60;;;8.00;99.00;;;;;;913485;152;27361;-83
2022/12/05 09:01:06;;;;;;;19.73;13.93;;;8.00;99.10;;;;;;925501;150;27386;-80
2022/12/05 09:03:32;;;;;;;19.83;14.37;;;8.00;99.10;;;;;;909610;152;27314;-85
2022/12/05 09:06:08;;;;;;;21.13;12.97;;;8.00;99.00;;;;;;928929;150;27965;-84
2022/12/05 09:08:34;;;;;;;20.20;13.93;;;8.00;99.00;;;;;;928441;150;27395;-84
2022/12/05 09:11:01;;;;;;;18.67;13.90;;;8.00;99.20;;;;;;930039;150;27330;-81
2022/12/05 09:13:27;;;;;;;23.40;13.93;;;8.00;99.30;;;;;;927955;150;27410;-82
2022/12/05 09:15:54;;;;;;;18.47;12.27;;;8.00;99.30;;;;;;927525;150;27480;-82
2022/12/05 09:18:21;;;;;;;20.87;13.47;;;8.10;99.40;;;;;;927520;150;27355;-82
2022/12/05 09:20:47;;;;;;;18.13;12.43;;;8.10;99.40;;;;;;930447;150;27378;-81
2022/12/05 09:23:14;;;;;;;18.10;12.27;;;8.10;99.40;;;;;;927846;150;27480;-81
2022/12/05 09:25:40;;;;;;;18.33;12.50;;;8.10;99.40;;;;;;928759;150;27540;-80
2022/12/05 09:28:07;;;;;;;18.43;12.53;;;8.10;99.40;;;;;;929687;150;27300;-81
2022/12/05 09:30:33;;;;;;;21.23;13.70;;;8.10;99.30;;;;;;928636;150;27364;-81
2022/12/05 09:33:00;;;;;;;21.90;13.90;;;8.10;99.40;;;;;;928523;150;27387;-81
2022/12/05 09:35:27;;;;;;;16.03;11.90;;;8.20;99.40;;;;;;928774;149;28088;-81
2022/12/05 09:37:55;;;;;;;19.50;13.17;;;8.20;99.60;;;;;;931053;150;27399;-80
2022/12/05 09:40:20;;;;;;;16.77;12.37;;;8.20;99.60;;;;;;929353;149;27402;-80
2022/12/05 09:42:59;;;;;;;22.17;13.73;;;8.20;99.60;;;;;;929475;150;27431;-80
2022/12/05 09:45:25;;;;;;;18.40;13.23;;;8.30;99.60;;;;;;926084;150;27451;-81
2022/12/05 09:48:07;;;;;;;19.40;12.63;;;8.30;99.50;;;;;;923080;151;27869;-81
2022/12/05 09:50:51;;;;;;;19.13;12.47;;;8.30;99.40;;;;;;920710;151;27448;-82
2022/12/05 09:53:30;;;;;;;18.27;12.60;;;8.30;99.30;;;;;;925901;151;27398;-81
2022/12/05 09:56:08;;;;;;;19.43;12.77;;;8.30;99.30;;;;;;925028;150;27489;-80
2022/12/05 09:58:50;;;;;;;19.40;11.80;;;8.40;99.60;;;;;;924928;149;27432;-80
2022/12/05 10:01:47;;;;;;;21.57;12.73;;;8.40;99.90;;;;;;944255;146;27289;-79
2022/12/05 10:04:33;;;;;;;19.07;12.57;;;8.40;99.90;;;;;;918670;152;27381;-79
2022/12/05 10:07:19;;;;;;;15.87;12.40;;;8.50;99.90;;;;;;944612;146;27359;-78
2022/12/05 10:09:48;;;;;;;16.90;12.20;;;8.60;99.90;;;;;;919111;152;27530;-80
2022/12/05 10:12:20;;;;;;;19.97;13.40;;;8.60;99.90;;;;;;944786;146;27301;-80
2022/12/05 10:14:53;;;;;;;20.73;12.87;;;8.70;99.90;;;;;;918590;152;27498;-80
2022/12/05 10:17:28;;;;;;;18.30;12.73;;;8.80;99.90;;;;;;942216;146;27429;-80
2022/12/05 10:19:54;;;;;;;20.07;13.97;;;8.80;99.70;;;;;;946824;146;27343;-80
2022/12/05 10:22:36;;;;;;;18.33;12.33;;;8.90;99.50;;;;;;944479;146;27292;-80
2022/12/05 10:25:02;;;;;;;16.97;12.23;;;8.90;99.30;;;;;;946535;146;27314;-80
2022/12/05 10:27:38;;;;;;;16.83;12.67;;;8.90;99.20;;;;;;945930;146;27483;-79
2022/12/05 10:30:05;;;;;;;15.60;11.67;;;8.90;99.20;;;;;;944604;146;27313;-80
2022/12/05 10:32:31;;;;;;;18.23;12.50;;;8.90;99.40;;;;;;943734;149;27280;-80
2022/12/05 10:35:17;;;;;;;16.93;12.53;;;8.90;99.40;;;;;;943150;146;27447;-80
2022/12/05 10:37:43;;;;;;;14.70;10.73;;;9.00;99.60;;;;;;937889;147;27318;-81
2022/12/05 10:40:10;;;;;;;17.60;10.90;;;9.10;99.80;;;;;;927604;150;27434;-80
2022/12/05 10:42:36;;;;;;;16.50;11.40;;;9.10;99.90;;;;;;940325;147;27588;-81
2022/12/05 10:45:03;;;;;;;16.77;11.83;;;9.20;99.90;;;;;;943089;146;27345;-80
2022/12/05 10:47:30;;;;;;;16.90;12.33;;;9.20;99.90;;;;;;928210;149;27358;-81
2022/12/05 10:49:56;;;;;;;17.60;11.70;;;9.30;99.60;;;;;;925400;150;27424;-81
2022/12/05 10:52:23;;;;;;;17.43;11.67;;;9.40;99.40;;;;;;943640;147;27302;-81
2022/12/05 10:54:57;;;;;;;15.00;10.87;;;9.40;99.00;;;;;;917674;150;27431;-81
2022/12/05 10:57:23;;;;;;;15.27;10.97;;;9.40;98.80;;;;;;918292;150;27285;-81
2022/12/05 10:59:50;;;;;;;13.90;10.63;;;9.50;98.80;;;;;;930070;150;27389;-81
2022/12/05 11:02:22;;;;;;;15.63;11.67;;;9.50;98.90;;;;;;932361;148;27369;-80
2022/12/05 11:04:49;;;;;;;13.90;9.83;;;9.50;98.60;;;;;;932522;148;28126;-81
2022/12/05 11:07:30;;;;;;;15.13;10.23;;;9.50;98.40;;;;;;941939;147;27409;-81
2022/12/05 11:10:00;;;;;;;15.77;11.53;;;9.50;98.10;;;;;;940387;147;27353;-81
2022/12/05 11:12:32;;;;;;;13.77;10.50;;;9.50;97.60;;;;;;934971;149;27418;-81
2022/12/05 11:14:59;;;;;;;16.27;10.93;;;9.40;97.40;;;;;;932909;148;27365;-80
2022/12/05 11:17:35;;;;;;;14.07;10.60;;;9.40;97.50;;;;;;933593;149;28040;-79
2022/12/05 11:20:01;;;;;;;13.10;10.23;;;9.30;97.50;;;;;;933257;149;27336;-80
2022/12/05 11:22:31;;;;;;;12.77;9.90;;;9.30;97.70;;;;;;934013;148;27770;-80
2022/12/05 11:24:57;;;;;;;15.10;10.20;;;9.20;97.80;;;;;;933842;149;27315;-81
2022/12/05 11:27:27;;;;;;;12.07;9.27;;;9.20;98.10;;;;;;932557;149;27483;-80
2022/12/05 11:30:03;;;;;;;12.20;10.00;;;9.10;98.30;;;;;;934802;149;27499;-79
2022/12/05 11:32:32;;;;;;;11.80;9.43;;;9.10;98.40;;;;;;934397;149;27339;-81
2022/12/05 11:35:10;;;;;;;12.67;9.37;;;9.10;98.50;;;;;;935380;150;27366;-80
2022/12/05 11:37:40;;;;;;;10.93;8.97;;;9.10;98.50;;;;;;936051;148;27377;-81
2022/12/05 11:40:15;;;;;;;14.07;9.17;;;9.00;98.40;;;;;;949717;146;27929;-81
2022/12/05 11:42:45;;;;;;;13.20;8.93;;;9.00;98.30;;;;;;954619;146;27398;-80
2022/12/05 11:45:14;;;;;;;12.00;9.30;;;9.00;98.30;;;;;;951409;145;27304;-80
2022/12/05 11:48:07;;;;;;;12.53;9.30;;;8.90;98.50;;;;;;955574;146;27821;-80
2022/12/05 11:50:40;;;;;;;12.20;8.83;;;8.90;98.70;;;;;;935533;149;27380;-80
2022/12/05 11:53:25;;;;;;;10.87;8.83;;;8.90;98.80;;;;;;934106;149;27369;-80
2022/12/05 11:55:54;;;;;;;12.17;8.60;;;8.90;98.90;;;;;;950334;146;27284;-81
2022/12/05 11:58:29;;;;;;;12.73;9.00;;;8.90;98.90;;;;;;954746;148;27280;-81
2022/12/05 12:01:08;;;;;;;12.93;8.97;;;8.90;99.10;;;;;;953880;149;27855;-80
2022/12/05 12:03:49;;;;;;;11.13;8.70;;;8.80;99.30;;;;;;954659;149;27963;-80
2022/12/05 12:06:21;;;;;;;9.53;7.97;;;8.90;99.20;;;;;;922824;153;27463;-81
2022/12/05 12:09:12;;;;;;;11.03;8.73;;;8.90;99.20;;;;;;949669;146;27389;-81
2022/12/05 12:11:44;;;;;;;11.33;8.57;;;8.90;99.20;;;;;;954003;146;27897;-82
2022/12/05 12:14:14;;;;;;;12.00;8.03;;;8.90;99.10;;;;;;952688;146;27293;-80
2022/12/05 12:16:46;;;;;;;10.63;8.23;;;8.90;99.20;;;;;;945676;146;27452;-81
2022/12/05 12:19:14;;;;;;;12.00;8.93;;;8.90;99.30;;;;;;952289;149;27402;-81
2022/12/05 12:21:42;;;;;;;13.53;9.00;;;8.90;99.20;;;;;;952137;146;27342;-80
2022/12/05 12:24:18;;;;;;;14.63;9.50;;;8.90;98.90;;;;;;941688;148;27994;-81
2022/12/05 12:27:02;;;;;;;12.60;9.17;;;8.90;99.30;;;;;;938538;149;27449;-81
2022/12/05 12:29:29;;;;;;;15.03;10.20;;;8.90;99.20;;;;;;946905;148;27397;-80
2022/12/05 12:32:01;;;;;;;13.13;9.80;;;8.80;99.00;;;;;;936894;148;27915;-80
2022/12/05 12:34:36;;;;;;;13.20;9.73;;;8.80;98.90;;;;;;943359;148;27368;-80
2022/12/05 12:37:21;;;;;;;17.00;9.93;;;8.80;98.90;;;;;;916736;149;27400;-80
2022/12/05 12:39:51;;;;;;;13.53;9.77;;;8.80;98.90;;;;;;916961;151;27341;-81
2022/12/05 12:42:17;;;;;;;12.97;9.67;;;8.70;99.00;;;;;;923495;151;27465;-81
2022/12/05 12:44:55;;;;;;;20.27;10.90;;;8.70;99.10;;;;;;923730;151;27490;-80
2022/12/05 12:47:56;;;;;;;14.07;10.70;;;8.70;99.20;;;;;;924002;151;27413;-80
2022/12/05 12:50:22;;;;;;;15.70;11.00;;;8.70;99.30;;;;;;899267;155;27350;-82
2022/12/05 12:53:04;;;;;;;13.70;9.93;;;8.70;99.30;;;;;;917707;150;27725;-82
2022/12/05 12:55:31;;;;;;;14.80;10.40;;;8.70;99.60;;;;;;903433;152;27382;-81
2022/12/05 12:58:15;;;;;;;17.63;11.70;;;8.70;99.70;;;;;;910947;152;27355;-81
2022/12/05 13:00:42;;;;;;;15.33;10.77;;;8.70;99.90;;;;;;908722;152;27489;-81